sensor_id;sensor_type;location;lat;lon;timestamp;pressure;altitude;pressure_sealevel;temperature;humidity
61740;BME280;47645;45.288;12.038;2023-10-19T00:05:02;1009.662143526405;;;12.236328125;100
61740;BME280;47645;45.288;12.038;2023-10-19T00:15:05;1009.7025353190118;;;12.3943359375;100
61740;BME280;47645;45.288;12.038;2023-10-19T00:25:04;1009.3550093574408;;;12.216015625;100
61740;BME280;47645;45.288;12.038;2023-10-19T00:30:07;1009.2171959628956;;;11.9662109375;100
61740;BME280;47645;45.288;12.038;2023-10-19T00:40:16;1009.3541126738005;;;12.328125;100
61740;BME280;47645;45.288;12.038;2023-10-19T00:50:07;1009.0073671585347;;;12.1853515625;100
61740;BME280;47645;45.288;12.038;2023-10-19T01:00:13;1009.0143236496584;;;12.343359375;100
61740;BME280;47645;45.288;12.038;2023-10-19T01:10:09;1008.8114304053089;;;12.3943359375;100
61740;BME280;47645;45.288;12.038;2023-10-19T01:20:16;1008.5717237765718;;;12.45546875;100
61740;BME280;47645;45.288;12.038;2023-10-19T01:30:10;1008.1761497415164;;;12.0630859375;100
61740;BME280;47645;45.288;12.038;2023-10-19T01:40:11;1008.0173141255237;;;12.2669921875;100
61740;BME280;47645;45.288;12.038;2023-10-19T01:50:20;1007.694916303455;;;12.00703125;100
61740;BME280;47645;45.288;12.038;2023-10-19T02:00:19;1007.9030388683827;;;12.35859375;100
61740;BME280;47645;45.288;12.038;2023-10-19T02:10:13;1007.8652668069969;;;12.425;100
61740;BME280;47645;45.288;12.038;2023-10-19T02:20:24;1007.8216209922939;;;12.2515625;100
61740;BME280;47645;45.288;12.038;2023-10-19T02:30:16;1007.4887988818675;;;12.246484375;100
61740;BME280;47645;45.288;12.038;2023-10-19T02:40:20;1007.4930682435577;;;12.312890625;100
61740;BME280;47645;45.288;12.038;2023-10-19T02:50:17;1007.3746803372159;;;12.1751953125;100
61740;BME280;47645;45.288;12.038;2023-10-19T03:00:21;1007.1417279000194;;;12.226171875;100
61740;BME280;47645;45.288;12.038;2023-10-19T03:10:24;1007.0235984579012;;;12.129296875;100
61740;BME280;47645;45.288;12.038;2023-10-19T03:20:24;1007.0248884286914;;;12.22109375;100
61740;BME280;47645;45.288;12.038;2023-10-19T03:30:20;1006.6758324658502;;;11.9458984375;100
61740;BME280;47645;45.288;12.038;2023-10-19T03:40:28;1006.6961102421218;;;11.9;100
61740;BME280;47645;45.288;12.038;2023-10-19T03:50:22;1006.6308233004726;;;11.93046875;100
61740;BME280;47645;45.288;12.038;2023-10-19T04:00:25;1006.3119058863763;;;12.2619140625;100
61740;BME280;47645;45.288;12.038;2023-10-19T04:10:31;1006.3860940179338;;;12.1853515625;100
61740;BME280;47645;45.288;12.038;2023-10-19T04:20:30;1006.0028628708018;;;12.3791015625;100
61740;BME280;47645;45.288;12.038;2023-10-19T04:30:26;1005.7498060832631;;;12.0427734375;100
61740;BME280;47645;45.288;12.038;2023-10-19T04:40:26;1005.604998917507;;;12.353515625;100
61740;BME280;47645;45.288;12.038;2023-10-19T04:50:27;1005.5604482747189;;;12.2568359375;100
61740;BME280;47645;45.288;12.038;2023-10-19T05:00:28;1005.524411975933;;;12.353515625;100
61740;BME280;47645;45.288;12.038;2023-10-19T05:10:29;1005.39586336268;;;12.5880859375;100
61740;BME280;47645;45.288;12.038;2023-10-19T05:20:30;1005.2568511188094;;;12.2771484375;100
61740;BME280;47645;45.288;12.038;2023-10-19T05:30:33;1005.3675850808064;;;12.521875;100
61740;BME280;47645;45.288;12.038;2023-10-19T05:40:32;1005.5878021371905;;;12.664453125;100
61740;BME280;47645;45.288;12.038;2023-10-19T05:50:33;1005.7365235287191;;;12.7205078125;100
61740;BME280;47645;45.288;12.038;2023-10-19T06:00:35;1005.7793040126135;;;12.6083984375;100
61740;BME280;47645;45.288;12.038;2023-10-19T06:10:35;1005.508547038202;;;12.751171875;100
61740;BME280;47645;45.288;12.038;2023-10-19T06:20:36;1005.4640336298643;;;12.7359375;100
61740;BME280;47645;45.288;12.038;2023-10-19T06:30:37;1005.2985407734495;;;12.9091796875;100
61740;BME280;47645;45.288;12.038;2023-10-19T06:40:38;1005.3141807593305;;;13.0162109375;100
61740;BME280;47645;45.288;12.038;2023-10-19T06:50:40;1005.1816405776148;;;12.98046875;100
61740;BME280;47645;45.288;12.038;2023-10-19T07:00:43;1005.1414701908467;;;13.1537109375;100
61740;BME280;47645;45.288;12.038;2023-10-19T07:10:42;1005.1037245603112;;;13.27109375;100
61740;BME280;47645;45.288;12.038;2023-10-19T07:20:43;1005.0844217993449;;;13.306640625;100
61740;BME280;47645;45.288;12.038;2023-10-19T07:30:43;1004.922745345293;;;13.4595703125;100
61740;BME280;47645;45.288;12.038;2023-10-19T07:40:44;1004.906887036693;;;13.704296875;100
61740;BME280;47645;45.288;12.038;2023-10-19T07:50:45;1004.855812902641;;;13.8673828125;100
61740;BME280;47645;45.288;12.038;2023-10-19T08:00:47;1004.9427091189325;;;13.9029296875;100
61740;BME280;47645;45.288;12.038;2023-10-19T08:10:47;1004.9315407100763;;;13.9998046875;100
61740;BME280;47645;45.288;12.038;2023-10-19T08:20:49;1004.6554461900367;;;14.24453125;100
61740;BME280;47645;45.288;12.038;2023-10-19T08:30:57;1004.5434104494275;;;14.5044921875;100
61740;BME280;47645;45.288;12.038;2023-10-19T08:40:51;1004.5256249068194;;;14.881640625;100
61740;BME280;47645;45.288;12.038;2023-10-19T08:50:51;1004.5348005789257;;;14.9529296875;100
61740;BME280;47645;45.288;12.038;2023-10-19T09:00:54;1004.4710827648555;;;14.9376953125;100
61740;BME280;47645;45.288;12.038;2023-10-19T09:10:55;1004.3181441994186;;;15.1365234375;100
61740;BME280;47645;45.288;12.038;2023-10-19T09:20:54;1004.252549866801;;;15.4626953125;100
61740;BME280;47645;45.288;12.038;2023-10-19T09:30:55;1004.2833695491717;;;15.83984375;100
61740;BME280;47645;45.288;12.038;2023-10-19T09:40:57;1004.1216607769393;;;16.1966796875;100
61740;BME280;47645;45.288;12.038;2023-10-19T09:50:59;1004.2665797941388;;;16.3291015625;100
61740;BME280;47645;45.288;12.038;2023-10-19T10:00:58;1004.1632941029231;;;16.56875;100
61740;BME280;47645;45.288;12.038;2023-10-19T10:11:15;1004.1742041083818;;;16.594140625;100
61740;BME280;47645;45.288;12.038;2023-10-19T10:21:11;1003.9253057370441;;;16.7267578125;100
61740;BME280;47645;45.288;12.038;2023-10-19T10:31:11;1003.7675280311491;;;17.0732421875;100
61740;BME280;47645;45.288;12.038;2023-10-19T10:41:03;1003.6884762580233;;;17.430078125;100
61740;BME280;47645;45.288;12.038;2023-10-19T10:51:15;1003.4072428454475;;;18.1896484375;100
61740;BME280;47645;45.288;12.038;2023-10-19T11:01:06;1002.8196138991698;;;18.9185546875;100
61740;BME280;47645;45.288;12.038;2023-10-19T11:11:08;1002.8403697379003;;;19.0203125;100
61740;BME280;47645;45.288;12.038;2023-10-19T11:21:09;1002.8877654686274;;;19.1171875;100
61740;BME280;47645;45.288;12.038;2023-10-19T11:31:13;1002.9155314049228;;;18.8267578125;100
61740;BME280;47645;45.288;12.038;2023-10-19T11:41:10;1002.7120988897965;;;18.8216796875;100
61740;BME280;47645;45.288;12.038;2023-10-19T11:51:11;1002.6105038658291;;;18.765625;100
61740;BME280;47645;45.288;12.038;2023-10-19T12:01:12;1002.6871699818123;;;19.015234375;100
61740;BME280;47645;45.288;12.038;2023-10-19T12:11:15;1002.5865705760909;;;19.1529296875;100
61740;BME280;47645;45.288;12.038;2023-10-19T12:21:16;1002.4523159544894;;;19.20390625;100
61740;BME280;47645;45.288;12.038;2023-10-19T12:31:15;1002.4414906377294;;;19.08671875;100
61740;BME280;47645;45.288;12.038;2023-10-19T12:41:18;1002.4712936192399;;;19.015234375;100
61740;BME280;47645;45.288;12.038;2023-10-19T12:51:24;1002.4614975841799;;;19.0203125;100
61740;BME280;47645;45.288;12.038;2023-10-19T13:01:20;1002.3518781436551;;;18.8216796875;100
61740;BME280;47645;45.288;12.038;2023-10-19T13:11:21;1002.3250919655803;;;18.704296875;100
61740;BME280;47645;45.288;12.038;2023-10-19T13:21:26;1002.363201287842;;;18.663671875;100
61740;BME280;47645;45.288;12.038;2023-10-19T13:31:23;1002.1631479805126;;;18.673828125;100
61740;BME280;47645;45.288;12.038;2023-10-19T13:41:24;1002.0371242338042;;;18.6279296875;100
61740;BME280;47645;45.288;12.038;2023-10-19T13:51:26;1002.0170861069678;;;18.5259765625;100
61740;BME280;47645;45.288;12.038;2023-10-19T14:01:29;1001.940053526628;;;18.1080078125;100
61740;BME280;47645;45.288;12.038;2023-10-19T14:11:27;1001.8309707546936;;;18.2150390625;100
61740;BME280;47645;45.288;12.038;2023-10-19T14:21:29;1001.7088838771375;;;17.96015625;100
61740;BME280;47645;45.288;12.038;2023-10-19T14:31:30;1001.6564400186759;;;18.0009765625;100
61740;BME280;47645;45.288;12.038;2023-10-19T14:41:31;1001.6854052800413;;;17.715625;100
61740;BME280;47645;45.288;12.038;2023-10-19T14:51:32;1001.6153944087283;;;17.817578125;100
61740;BME280;47645;45.288;12.038;2023-10-19T15:01:33;1001.5182321266744;;;17.7919921875;100
61740;BME280;47645;45.288;12.038;2023-10-19T15:11:34;1001.4567162001811;;;17.751171875;100
61740;BME280;47645;45.288;12.038;2023-10-19T15:21:35;1001.1707453200756;;;17.55234375;100
61740;BME280;47645;45.288;12.038;2023-10-19T15:31:37;1000.9201131196808;;;17.5015625;100
61740;BME280;47645;45.288;12.038;2023-10-19T15:41:38;1000.6140402694124;;;17.2873046875;100
61740;BME280;47645;45.288;12.038;2023-10-19T15:51:39;1000.3647014921573;;;16.9712890625;100
61740;BME280;47645;45.288;12.038;2023-10-19T16:01:40;1000.6910944806191;;;16.9408203125;100
61740;BME280;47645;45.288;12.038;2023-10-19T16:11:41;1000.7706260693117;;;17.0275390625;100
61740;BME280;47645;45.288;12.038;2023-10-19T16:21:43;1000.7829177642521;;;16.9662109375;100
61740;BME280;47645;45.288;12.038;2023-10-19T16:31:49;1000.7988450461888;;;16.915234375;100
61740;BME280;47645;45.288;12.038;2023-10-19T16:41:46;1000.871276752293;;;16.996875;100
61740;BME280;47645;45.288;12.038;2023-10-19T16:51:46;1000.9028929928351;;;16.9203125;100
61740;BME280;47645;45.288;12.038;2023-10-19T17:01:48;1000.9957166276612;;;16.9;100
61740;BME280;47645;45.288;12.038;2023-10-19T17:11:50;1000.7563816389462;;;16.9306640625;100
61740;BME280;47645;45.288;12.038;2023-10-19T17:21:49;1000.695471237962;;;16.7216796875;100
61740;BME280;47645;45.288;12.038;2023-10-19T17:31:50;1000.501349131515;;;16.680859375;100
61740;BME280;47645;45.288;12.038;2023-10-19T17:41:51;1000.57729684191;;;16.8287109375;100
61740;BME280;47645;45.288;12.038;2023-10-19T17:51:53;1000.621336099565;;;16.665625;100
61740;BME280;47645;45.288;12.038;2023-10-19T18:01:55;1000.7342806268764;;;16.583984375;100
61740;BME280;47645;45.288;12.038;2023-10-19T18:11:54;1000.5781989749684;;;16.6451171875;100
61740;BME280;47645;45.288;12.038;2023-10-19T18:21:55;1000.4492396279629;;;16.57890625;100
61740;BME280;47645;45.288;12.038;2023-10-19T18:31:57;1000.2995873119638;;;16.6451171875;100
61740;BME280;47645;45.288;12.038;2023-10-19T18:41:58;999.8771014491223;;;16.9;100
61740;BME280;47645;45.288;12.038;2023-10-19T18:51:59;1000.0562121764845;;;16.69609375;100
61740;BME280;47645;45.288;12.038;2023-10-19T19:02:00;999.9978228179068;;;16.7216796875;100
61740;BME280;47645;45.288;12.038;2023-10-19T19:12:01;999.7669924964752;;;16.7470703125;100
61740;BME280;47645;45.288;12.038;2023-10-19T19:22:02;999.7014814890935;;;16.8185546875;100
61740;BME280;47645;45.288;12.038;2023-10-19T19:32:04;1000.0224802378018;;;16.563671875;100
61740;BME280;47645;45.288;12.038;2023-10-19T19:42:04;999.6627781337812;;;16.6501953125;100
61740;BME280;47645;45.288;12.038;2023-10-19T19:52:05;999.8389924975107;;;16.349609375;100
61740;BME280;47645;45.288;12.038;2023-10-19T20:02:06;999.6097974884663;;;16.7572265625;100
61740;BME280;47645;45.288;12.038;2023-10-19T20:12:08;999.7096195508424;;;16.604296875;100
61740;BME280;47645;45.288;12.038;2023-10-19T20:22:10;999.5033647202425;;;16.5431640625;100
61740;BME280;47645;45.288;12.038;2023-10-19T20:32:12;999.5356389485827;;;16.7623046875;100
61740;BME280;47645;45.288;12.038;2023-10-19T20:42:11;999.3798431532232;;;16.604296875;100
61740;BME280;47645;45.288;12.038;2023-10-19T20:52:11;999.3118938286946;;;16.69609375;100
61740;BME280;47645;45.288;12.038;2023-10-19T21:02:13;999.0911576540367;;;16.8541015625;100
61740;BME280;47645;45.288;12.038;2023-10-19T21:12:13;999.1087995590974;;;16.8439453125;100
61740;BME280;47645;45.288;12.038;2023-10-19T21:22:14;999.029371461564;;;16.77265625;100
61740;BME280;47645;45.288;12.038;2023-10-19T21:32:16;999.0491685003304;;;16.6859375;100
61740;BME280;47645;45.288;12.038;2023-10-19T21:42:16;998.6823447424983;;;16.6095703125;100
61740;BME280;47645;45.288;12.038;2023-10-19T21:52:21;998.7101383928149;;;16.803125;100
61740;BME280;47645;45.288;12.038;2023-10-19T22:02:19;998.4622437470408;;;16.8185546875;100
61740;BME280;47645;45.288;12.038;2023-10-19T22:12:20;998.2024602314362;;;16.660546875;100
61740;BME280;47645;45.288;12.038;2023-10-19T22:22:21;998.0970853197326;;;16.5482421875;100
61740;BME280;47645;45.288;12.038;2023-10-19T22:32:22;997.9717615649093;;;16.5228515625;100
61740;BME280;47645;45.288;12.038;2023-10-19T22:42:23;997.9805385254846;;;16.26796875;100
61740;BME280;47645;45.288;12.038;2023-10-19T22:52:26;997.9721153817623;;;16.7470703125;100
61740;BME280;47645;45.288;12.038;2023-10-19T23:02:26;997.8568825273433;;;16.6501953125;100
61740;BME280;47645;45.288;12.038;2023-10-19T23:12:28;997.9727719237271;;;16.5076171875;100
61740;BME280;47645;45.288;12.038;2023-10-19T23:22:28;997.8860927398272;;;16.604296875;100
61740;BME280;47645;45.288;12.038;2023-10-19T23:32:29;997.6395766801163;;;16.7572265625;100
61740;BME280;47645;45.288;12.038;2023-10-19T23:42:29;997.5826056015034;;;16.8287109375;100
61740;BME280;47645;45.288;12.038;2023-10-19T23:52:30;997.4733849226037;;;17.012109375;100
